sensor_id;sensor_type;location;lat;lon;timestamp;temperature;humidity
49242;DHT22;35079;52.704;13.814;2022-10-16T00:00:33;14.40;99.90
49242;DHT22;35079;52.704;13.814;2022-10-16T00:02:59;14.40;99.90
49242;DHT22;35079;52.704;13.814;2022-10-16T00:05:25;14.40;99.90
49242;DHT22;35079;52.704;13.814;2022-10-16T00:07:50;14.40;99.90
49242;DHT22;35079;52.704;13.814;2022-10-16T00:10:16;14.60;99.90
49242;DHT22;35079;52.704;13.814;2022-10-16T00:12:41;14.50;99.90
49242;DHT22;35079;52.704;13.814;2022-10-16T00:15:07;14.50;99.90
49242;DHT22;35079;52.704;13.814;2022-10-16T00:17:33;14.50;99.90
49242;DHT22;35079;52.704;13.814;2022-10-16T00:19:59;14.50;99.90
49242;DHT22;35079;52.704;13.814;2022-10-16T00:22:24;14.60;99.90
49242;DHT22;35079;52.704;13.814;2022-10-16T00:24:50;14.60;99.90
49242;DHT22;35079;52.704;13.814;2022-10-16T00:27:16;14.60;99.90
49242;DHT22;35079;52.704;13.814;2022-10-16T00:29:42;14.60;99.90
49242;DHT22;35079;52.704;13.814;2022-10-16T00:32:08;14.70;99.90
49242;DHT22;35079;52.704;13.814;2022-10-16T00:34:34;14.50;99.90
49242;DHT22;35079;52.704;13.814;2022-10-16T00:37:00;14.50;99.90
49242;DHT22;35079;52.704;13.814;2022-10-16T00:39:26;14.50;99.90
49242;DHT22;35079;52.704;13.814;2022-10-16T00:41:51;14.50;99.90
49242;DHT22;35079;52.704;13.814;2022-10-16T00:47:31;14.50;99.90
49242;DHT22;35079;52.704;13.814;2022-10-16T00:50:11;14.60;99.90
49242;DHT22;35079;52.704;13.814;2022-10-16T00:52:41;14.60;99.90
49242;DHT22;35079;52.704;13.814;2022-10-16T00:55:09;14.50;99.90
49242;DHT22;35079;52.704;13.814;2022-10-16T00:57:36;14.60;99.90
49242;DHT22;35079;52.704;13.814;2022-10-16T01:00:04;14.70;99.90
49242;DHT22;35079;52.704;13.814;2022-10-16T01:02:30;14.60;99.90
49242;DHT22;35079;52.704;13.814;2022-10-16T01:04:56;14.60;99.90
49242;DHT22;35079;52.704;13.814;2022-10-16T01:15:37;14.60;99.90
49242;DHT22;35079;52.704;13.814;2022-10-16T01:18:19;14.60;99.90
49242;DHT22;35079;52.704;13.814;2022-10-16T01:20:57;14.50;99.90
49242;DHT22;35079;52.704;13.814;2022-10-16T01:29:36;14.40;99.90
49242;DHT22;35079;52.704;13.814;2022-10-16T01:32:17;14.40;99.90
49242;DHT22;35079;52.704;13.814;2022-10-16T01:34:49;14.40;99.90
49242;DHT22;35079;52.704;13.814;2022-10-16T01:37:22;14.40;99.90
49242;DHT22;35079;52.704;13.814;2022-10-16T01:39:52;14.20;99.90
49242;DHT22;35079;52.704;13.814;2022-10-16T01:42:23;14.30;99.90
49242;DHT22;35079;52.704;13.814;2022-10-16T01:44:51;14.10;99.90
49242;DHT22;35079;52.704;13.814;2022-10-16T01:47:21;14.20;99.90
49242;DHT22;35079;52.704;13.814;2022-10-16T01:49:48;14.20;99.90
49242;DHT22;35079;52.704;13.814;2022-10-16T01:52:17;14.10;99.90
49242;DHT22;35079;52.704;13.814;2022-10-16T01:54:47;14.00;99.90
49242;DHT22;35079;52.704;13.814;2022-10-16T01:57:15;14.10;99.90
49242;DHT22;35079;52.704;13.814;2022-10-16T01:59:48;14.10;99.90
49242;DHT22;35079;52.704;13.814;2022-10-16T02:02:17;14.10;99.90
49242;DHT22;35079;52.704;13.814;2022-10-16T02:04:49;13.90;99.90
49242;DHT22;35079;52.704;13.814;2022-10-16T02:07:18;13.90;99.90
49242;DHT22;35079;52.704;13.814;2022-10-16T02:09:44;14.00;99.90
49242;DHT22;35079;52.704;13.814;2022-10-16T02:12:26;13.90;99.90
49242;DHT22;35079;52.704;13.814;2022-10-16T02:14:53;13.80;99.90
49242;DHT22;35079;52.704;13.814;2022-10-16T02:17:19;13.80;99.90
49242;DHT22;35079;52.704;13.814;2022-10-16T02:19:47;13.80;99.90
49242;DHT22;35079;52.704;13.814;2022-10-16T02:22:22;13.80;99.90
49242;DHT22;35079;52.704;13.814;2022-10-16T02:33:14;13.80;99.90
49242;DHT22;35079;52.704;13.814;2022-10-16T02:35:44;13.90;99.90
49242;DHT22;35079;52.704;13.814;2022-10-16T02:38:11;13.90;99.90
49242;DHT22;35079;52.704;13.814;2022-10-16T02:40:37;13.90;99.90
49242;DHT22;35079;52.704;13.814;2022-10-16T02:43:04;13.90;99.90
49242;DHT22;35079;52.704;13.814;2022-10-16T02:45:30;13.90;99.90
49242;DHT22;35079;52.704;13.814;2022-10-16T02:47:56;13.90;99.90
49242;DHT22;35079;52.704;13.814;2022-10-16T02:50:22;13.90;99.90
49242;DHT22;35079;52.704;13.814;2022-10-16T02:52:48;13.90;99.90
49242;DHT22;35079;52.704;13.814;2022-10-16T02:55:13;14.00;99.90
49242;DHT22;35079;52.704;13.814;2022-10-16T02:57:39;13.90;99.90
49242;DHT22;35079;52.704;13.814;2022-10-16T03:00:07;13.90;99.90
49242;DHT22;35079;52.704;13.814;2022-10-16T03:02:36;13.90;99.90
49242;DHT22;35079;52.704;13.814;2022-10-16T03:05:04;14.00;99.90
49242;DHT22;35079;52.704;13.814;2022-10-16T03:07:30;13.90;99.90
49242;DHT22;35079;52.704;13.814;2022-10-16T03:09:56;14.00;99.90
49242;DHT22;35079;52.704;13.814;2022-10-16T03:12:21;13.90;99.90
49242;DHT22;35079;52.704;13.814;2022-10-16T03:14:47;14.00;99.90
49242;DHT22;35079;52.704;13.814;2022-10-16T03:17:13;14.00;99.90
49242;DHT22;35079;52.704;13.814;2022-10-16T03:19:41;14.10;99.90
49242;DHT22;35079;52.704;13.814;2022-10-16T03:22:07;14.10;99.90
49242;DHT22;35079;52.704;13.814;2022-10-16T03:24:33;14.10;99.90
49242;DHT22;35079;52.704;13.814;2022-10-16T03:26:59;14.00;99.90
49242;DHT22;35079;52.704;13.814;2022-10-16T03:29:25;14.10;99.90
49242;DHT22;35079;52.704;13.814;2022-10-16T03:31:51;14.00;99.90
49242;DHT22;35079;52.704;13.814;2022-10-16T03:34:17;14.00;99.90
49242;DHT22;35079;52.704;13.814;2022-10-16T03:36:42;14.10;99.90
49242;DHT22;35079;52.704;13.814;2022-10-16T03:39:08;14.00;99.90
49242;DHT22;35079;52.704;13.814;2022-10-16T03:41:33;14.00;99.90
49242;DHT22;35079;52.704;13.814;2022-10-16T03:43:59;13.90;99.90
49242;DHT22;35079;52.704;13.814;2022-10-16T03:46:25;13.90;99.90
49242;DHT22;35079;52.704;13.814;2022-10-16T03:48:50;13.90;99.90
49242;DHT22;35079;52.704;13.814;2022-10-16T03:51:16;13.80;99.90
49242;DHT22;35079;52.704;13.814;2022-10-16T03:53:41;13.90;99.90
49242;DHT22;35079;52.704;13.814;2022-10-16T03:56:07;13.70;99.90
49242;DHT22;35079;52.704;13.814;2022-10-16T03:58:33;13.70;99.90
49242;DHT22;35079;52.704;13.814;2022-10-16T04:00:58;13.80;99.90
49242;DHT22;35079;52.704;13.814;2022-10-16T04:03:24;13.60;99.90
49242;DHT22;35079;52.704;13.814;2022-10-16T04:05:50;13.60;99.90
49242;DHT22;35079;52.704;13.814;2022-10-16T04:08:15;13.70;99.90
49242;DHT22;35079;52.704;13.814;2022-10-16T04:10:44;13.50;99.90
49242;DHT22;35079;52.704;13.814;2022-10-16T04:13:11;13.60;99.90
49242;DHT22;35079;52.704;13.814;2022-10-16T04:15:37;13.50;99.90
49242;DHT22;35079;52.704;13.814;2022-10-16T04:18:03;13.60;99.90
49242;DHT22;35079;52.704;13.814;2022-10-16T04:20:29;13.60;99.90
49242;DHT22;35079;52.704;13.814;2022-10-16T04:22:55;13.70;99.90
49242;DHT22;35079;52.704;13.814;2022-10-16T04:25:21;13.60;99.90
49242;DHT22;35079;52.704;13.814;2022-10-16T04:27:47;13.70;99.90
49242;DHT22;35079;52.704;13.814;2022-10-16T04:30:13;13.60;99.90
49242;DHT22;35079;52.704;13.814;2022-10-16T04:32:39;13.50;99.90
49242;DHT22;35079;52.704;13.814;2022-10-16T04:35:04;13.60;99.90
49242;DHT22;35079;52.704;13.814;2022-10-16T04:37:30;13.60;99.90
49242;DHT22;35079;52.704;13.814;2022-10-16T04:39:56;13.50;99.90
49242;DHT22;35079;52.704;13.814;2022-10-16T04:42:21;13.50;99.90
49242;DHT22;35079;52.704;13.814;2022-10-16T04:44:47;13.50;99.90
49242;DHT22;35079;52.704;13.814;2022-10-16T04:47:13;13.50;99.90
49242;DHT22;35079;52.704;13.814;2022-10-16T04:49:39;13.60;99.90
49242;DHT22;35079;52.704;13.814;2022-10-16T04:52:04;13.50;99.90
49242;DHT22;35079;52.704;13.814;2022-10-16T04:54:30;13.40;99.90
49242;DHT22;35079;52.704;13.814;2022-10-16T04:56:55;13.40;99.90
49242;DHT22;35079;52.704;13.814;2022-10-16T04:59:22;13.50;99.90
49242;DHT22;35079;52.704;13.814;2022-10-16T05:01:48;13.40;99.90
49242;DHT22;35079;52.704;13.814;2022-10-16T05:04:14;13.40;99.90
49242;DHT22;35079;52.704;13.814;2022-10-16T05:06:40;13.30;99.90
49242;DHT22;35079;52.704;13.814;2022-10-16T05:09:06;13.40;99.90
49242;DHT22;35079;52.704;13.814;2022-10-16T05:11:32;13.40;99.90
49242;DHT22;35079;52.704;13.814;2022-10-16T05:13:58;13.40;99.90
49242;DHT22;35079;52.704;13.814;2022-10-16T05:16:23;13.30;99.90
49242;DHT22;35079;52.704;13.814;2022-10-16T05:18:51;13.40;99.90
49242;DHT22;35079;52.704;13.814;2022-10-16T05:21:17;13.40;99.90
49242;DHT22;35079;52.704;13.814;2022-10-16T05:23:42;13.30;99.90
49242;DHT22;35079;52.704;13.814;2022-10-16T05:26:08;13.30;99.90
49242;DHT22;35079;52.704;13.814;2022-10-16T05:28:33;13.30;99.90
49242;DHT22;35079;52.704;13.814;2022-10-16T05:30:59;13.30;99.90
49242;DHT22;35079;52.704;13.814;2022-10-16T05:33:28;13.30;99.90
49242;DHT22;35079;52.704;13.814;2022-10-16T05:35:54;13.40;99.90
49242;DHT22;35079;52.704;13.814;2022-10-16T05:38:20;13.30;99.90
49242;DHT22;35079;52.704;13.814;2022-10-16T05:40:54;13.30;99.90
49242;DHT22;35079;52.704;13.814;2022-10-16T05:43:21;13.40;99.90
49242;DHT22;35079;52.704;13.814;2022-10-16T05:46:06;13.30;99.90
49242;DHT22;35079;52.704;13.814;2022-10-16T05:48:32;13.40;99.90
49242;DHT22;35079;52.704;13.814;2022-10-16T05:50:59;13.30;99.90
49242;DHT22;35079;52.704;13.814;2022-10-16T05:53:27;13.40;99.90
49242;DHT22;35079;52.704;13.814;2022-10-16T05:55:54;13.30;99.90
49242;DHT22;35079;52.704;13.814;2022-10-16T05:58:21;13.50;99.90
49242;DHT22;35079;52.704;13.814;2022-10-16T06:00:57;13.50;99.90
49242;DHT22;35079;52.704;13.814;2022-10-16T06:03:23;13.50;99.90
49242;DHT22;35079;52.704;13.814;2022-10-16T06:05:50;13.60;99.90
49242;DHT22;35079;52.704;13.814;2022-10-16T06:08:15;13.60;99.90
49242;DHT22;35079;52.704;13.814;2022-10-16T06:10:41;13.70;99.90
49242;DHT22;35079;52.704;13.814;2022-10-16T06:13:07;13.70;99.90
49242;DHT22;35079;52.704;13.814;2022-10-16T06:15:33;13.70;99.90
49242;DHT22;35079;52.704;13.814;2022-10-16T06:17:58;13.60;99.90
49242;DHT22;35079;52.704;13.814;2022-10-16T06:20:24;13.80;99.90
49242;DHT22;35079;52.704;13.814;2022-10-16T06:22:50;13.80;99.90
49242;DHT22;35079;52.704;13.814;2022-10-16T06:25:15;13.80;99.90
49242;DHT22;35079;52.704;13.814;2022-10-16T06:27:41;13.90;99.90
49242;DHT22;35079;52.704;13.814;2022-10-16T06:30:07;13.90;99.90
49242;DHT22;35079;52.704;13.814;2022-10-16T06:32:33;14.00;99.90
49242;DHT22;35079;52.704;13.814;2022-10-16T06:34:58;14.20;99.90
49242;DHT22;35079;52.704;13.814;2022-10-16T06:37:24;14.20;99.90
49242;DHT22;35079;52.704;13.814;2022-10-16T06:39:50;14.40;99.90
49242;DHT22;35079;52.704;13.814;2022-10-16T06:42:18;14.50;99.90
49242;DHT22;35079;52.704;13.814;2022-10-16T06:44:43;14.60;99.90
49242;DHT22;35079;52.704;13.814;2022-10-16T06:47:09;14.60;99.90
49242;DHT22;35079;52.704;13.814;2022-10-16T06:49:34;14.80;99.90
49242;DHT22;35079;52.704;13.814;2022-10-16T06:52:00;14.80;99.90
49242;DHT22;35079;52.704;13.814;2022-10-16T06:54:27;14.80;99.90
49242;DHT22;35079;52.704;13.814;2022-10-16T06:56:53;15.00;99.90
49242;DHT22;35079;52.704;13.814;2022-10-16T06:59:22;15.00;99.90
49242;DHT22;35079;52.704;13.814;2022-10-16T07:01:48;15.10;99.90
49242;DHT22;35079;52.704;13.814;2022-10-16T07:04:14;15.20;99.90
49242;DHT22;35079;52.704;13.814;2022-10-16T07:06:40;15.30;99.90
49242;DHT22;35079;52.704;13.814;2022-10-16T07:09:08;15.20;99.90
49242;DHT22;35079;52.704;13.814;2022-10-16T07:11:34;15.30;99.90
49242;DHT22;35079;52.704;13.814;2022-10-16T07:14:01;15.40;99.90
49242;DHT22;35079;52.704;13.814;2022-10-16T07:16:29;15.50;99.90
49242;DHT22;35079;52.704;13.814;2022-10-16T07:18:55;15.50;99.90
49242;DHT22;35079;52.704;13.814;2022-10-16T07:21:26;15.60;99.90
49242;DHT22;35079;52.704;13.814;2022-10-16T07:23:58;15.60;99.90
49242;DHT22;35079;52.704;13.814;2022-10-16T07:26:24;15.70;99.90
49242;DHT22;35079;52.704;13.814;2022-10-16T07:28:51;15.80;99.90
49242;DHT22;35079;52.704;13.814;2022-10-16T07:31:18;16.20;99.90
49242;DHT22;35079;52.704;13.814;2022-10-16T07:33:45;16.40;99.90
49242;DHT22;35079;52.704;13.814;2022-10-16T07:36:14;16.50;99.90
49242;DHT22;35079;52.704;13.814;2022-10-16T07:38:39;16.40;99.90
49242;DHT22;35079;52.704;13.814;2022-10-16T07:41:17;16.60;99.90
49242;DHT22;35079;52.704;13.814;2022-10-16T07:43:51;17.00;99.90
49242;DHT22;35079;52.704;13.814;2022-10-16T07:46:18;17.20;99.90
49242;DHT22;35079;52.704;13.814;2022-10-16T07:48:44;17.30;99.90
49242;DHT22;35079;52.704;13.814;2022-10-16T07:51:16;17.30;99.90
49242;DHT22;35079;52.704;13.814;2022-10-16T07:53:43;17.20;99.90
49242;DHT22;35079;52.704;13.814;2022-10-16T07:56:09;17.10;99.90
49242;DHT22;35079;52.704;13.814;2022-10-16T07:58:35;17.00;99.90
49242;DHT22;35079;52.704;13.814;2022-10-16T08:01:06;17.00;99.90
49242;DHT22;35079;52.704;13.814;2022-10-16T08:03:32;16.90;99.90
49242;DHT22;35079;52.704;13.814;2022-10-16T08:05:58;16.80;99.90
49242;DHT22;35079;52.704;13.814;2022-10-16T08:08:25;16.70;99.90
49242;DHT22;35079;52.704;13.814;2022-10-16T08:10:50;16.80;99.90
49242;DHT22;35079;52.704;13.814;2022-10-16T08:13:16;16.70;99.90
49242;DHT22;35079;52.704;13.814;2022-10-16T08:15:43;16.60;99.90
49242;DHT22;35079;52.704;13.814;2022-10-16T08:18:10;16.40;99.90
49242;DHT22;35079;52.704;13.814;2022-10-16T08:20:40;16.50;99.90
49242;DHT22;35079;52.704;13.814;2022-10-16T08:23:06;16.40;99.90
49242;DHT22;35079;52.704;13.814;2022-10-16T08:25:35;16.50;99.90
49242;DHT22;35079;52.704;13.814;2022-10-16T08:28:06;16.50;99.90
49242;DHT22;35079;52.704;13.814;2022-10-16T08:30:33;16.50;99.90
49242;DHT22;35079;52.704;13.814;2022-10-16T08:32:59;16.60;99.90
49242;DHT22;35079;52.704;13.814;2022-10-16T08:35:25;16.60;99.90
49242;DHT22;35079;52.704;13.814;2022-10-16T08:37:50;16.60;99.90
49242;DHT22;35079;52.704;13.814;2022-10-16T08:40:30;16.50;99.90
49242;DHT22;35079;52.704;13.814;2022-10-16T08:48:48;16.50;99.90
49242;DHT22;35079;52.704;13.814;2022-10-16T08:51:29;16.60;99.90
49242;DHT22;35079;52.704;13.814;2022-10-16T08:54:23;16.60;99.90
49242;DHT22;35079;52.704;13.814;2022-10-16T08:56:43;16.80;99.90
49242;DHT22;35079;52.704;13.814;2022-10-16T08:59:14;16.80;99.90
49242;DHT22;35079;52.704;13.814;2022-10-16T09:01:47;17.00;99.90
49242;DHT22;35079;52.704;13.814;2022-10-16T09:07:03;17.20;99.90
49242;DHT22;35079;52.704;13.814;2022-10-16T09:12:19;17.50;99.90
49242;DHT22;35079;52.704;13.814;2022-10-16T09:19:53;17.70;99.90
49242;DHT22;35079;52.704;13.814;2022-10-16T09:22:22;17.80;99.90
49242;DHT22;35079;52.704;13.814;2022-10-16T09:24:50;17.90;99.90
49242;DHT22;35079;52.704;13.814;2022-10-16T09:27:16;18.20;99.90
49242;DHT22;35079;52.704;13.814;2022-10-16T09:29:41;18.50;99.90
49242;DHT22;35079;52.704;13.814;2022-10-16T09:32:19;18.80;99.90
49242;DHT22;35079;52.704;13.814;2022-10-16T09:34:49;19.00;99.90
49242;DHT22;35079;52.704;13.814;2022-10-16T09:37:19;18.90;99.90
49242;DHT22;35079;52.704;13.814;2022-10-16T09:39:51;18.90;99.90
49242;DHT22;35079;52.704;13.814;2022-10-16T09:42:30;18.90;99.90
49242;DHT22;35079;52.704;13.814;2022-10-16T09:44:57;18.90;99.90
49242;DHT22;35079;52.704;13.814;2022-10-16T09:47:24;19.00;99.90
49242;DHT22;35079;52.704;13.814;2022-10-16T09:50:03;19.00;99.90
49242;DHT22;35079;52.704;13.814;2022-10-16T09:52:32;18.90;99.90
49242;DHT22;35079;52.704;13.814;2022-10-16T09:55:00;19.10;99.90
49242;DHT22;35079;52.704;13.814;2022-10-16T09:57:26;19.40;99.90
49242;DHT22;35079;52.704;13.814;2022-10-16T09:59:54;19.40;99.90
49242;DHT22;35079;52.704;13.814;2022-10-16T10:02:29;19.60;99.90
49242;DHT22;35079;52.704;13.814;2022-10-16T10:04:55;19.80;99.90
49242;DHT22;35079;52.704;13.814;2022-10-16T10:07:32;19.80;99.90
49242;DHT22;35079;52.704;13.814;2022-10-16T10:09:59;19.90;99.90
49242;DHT22;35079;52.704;13.814;2022-10-16T10:12:33;19.90;99.90
49242;DHT22;35079;52.704;13.814;2022-10-16T10:15:09;20.10;99.90
49242;DHT22;35079;52.704;13.814;2022-10-16T10:17:44;20.50;99.90
49242;DHT22;35079;52.704;13.814;2022-10-16T10:20:32;20.60;99.90
49242;DHT22;35079;52.704;13.814;2022-10-16T10:23:00;20.60;99.90
49242;DHT22;35079;52.704;13.814;2022-10-16T10:28:51;20.40;99.90
49242;DHT22;35079;52.704;13.814;2022-10-16T10:31:38;20.20;99.90
49242;DHT22;35079;52.704;13.814;2022-10-16T10:36:38;19.90;99.90
49242;DHT22;35079;52.704;13.814;2022-10-16T10:46:50;19.70;99.90
49242;DHT22;35079;52.704;13.814;2022-10-16T11:05:56;20.10;99.90
49242;DHT22;35079;52.704;13.814;2022-10-16T11:08:32;20.30;99.90
49242;DHT22;35079;52.704;13.814;2022-10-16T11:11:16;20.50;99.90
49242;DHT22;35079;52.704;13.814;2022-10-16T11:14:09;20.50;99.90
49242;DHT22;35079;52.704;13.814;2022-10-16T11:16:32;20.70;99.90
49242;DHT22;35079;52.704;13.814;2022-10-16T11:21:51;20.90;99.90
49242;DHT22;35079;52.704;13.814;2022-10-16T11:24:26;21.00;99.90
49242;DHT22;35079;52.704;13.814;2022-10-16T11:27:00;20.80;99.90
49242;DHT22;35079;52.704;13.814;2022-10-16T11:29:30;20.90;99.90
49242;DHT22;35079;52.704;13.814;2022-10-16T11:32:01;20.90;99.90
49242;DHT22;35079;52.704;13.814;2022-10-16T11:34:36;20.80;99.90
49242;DHT22;35079;52.704;13.814;2022-10-16T11:37:24;20.90;99.90
49242;DHT22;35079;52.704;13.814;2022-10-16T11:39:53;21.00;99.90
49242;DHT22;35079;52.704;13.814;2022-10-16T11:42:30;20.80;99.90
49242;DHT22;35079;52.704;13.814;2022-10-16T11:47:58;20.70;99.90
49242;DHT22;35079;52.704;13.814;2022-10-16T11:50:38;20.60;99.90
49242;DHT22;35079;52.704;13.814;2022-10-16T11:55:40;21.60;99.90
49242;DHT22;35079;52.704;13.814;2022-10-16T12:01:05;23.90;99.90
49242;DHT22;35079;52.704;13.814;2022-10-16T12:09:00;25.80;96.00
49242;DHT22;35079;52.704;13.814;2022-10-16T12:14:32;25.80;95.90
49242;DHT22;35079;52.704;13.814;2022-10-16T12:16:56;25.40;95.10
49242;DHT22;35079;52.704;13.814;2022-10-16T12:19:24;24.90;95.10
49242;DHT22;35079;52.704;13.814;2022-10-16T12:21:51;24.40;95.80
49242;DHT22;35079;52.704;13.814;2022-10-16T12:26:52;23.50;97.60
49242;DHT22;35079;52.704;13.814;2022-10-16T12:31:52;22.60;97.60
49242;DHT22;35079;52.704;13.814;2022-10-16T12:39:55;21.90;98.40
49242;DHT22;35079;52.704;13.814;2022-10-16T12:44:53;21.70;99.30
49242;DHT22;35079;52.704;13.814;2022-10-16T12:47:36;21.40;99.40
49242;DHT22;35079;52.704;13.814;2022-10-16T12:50:03;21.30;99.30
49242;DHT22;35079;52.704;13.814;2022-10-16T12:52:48;21.20;99.50
49242;DHT22;35079;52.704;13.814;2022-10-16T12:55:19;21.20;99.20
49242;DHT22;35079;52.704;13.814;2022-10-16T13:00:53;20.90;98.40
49242;DHT22;35079;52.704;13.814;2022-10-16T13:14:16;20.20;99.50
49242;DHT22;35079;52.704;13.814;2022-10-16T13:16:57;20.20;99.70
49242;DHT22;35079;52.704;13.814;2022-10-16T13:28:02;20.00;99.90
49242;DHT22;35079;52.704;13.814;2022-10-16T13:30:44;20.00;99.90
49242;DHT22;35079;52.704;13.814;2022-10-16T13:33:20;20.00;99.90
49242;DHT22;35079;52.704;13.814;2022-10-16T13:35:52;20.10;99.90
49242;DHT22;35079;52.704;13.814;2022-10-16T13:38:25;20.00;99.90
49242;DHT22;35079;52.704;13.814;2022-10-16T13:40:55;20.00;99.90
49242;DHT22;35079;52.704;13.814;2022-10-16T13:43:41;20.00;99.30
49242;DHT22;35079;52.704;13.814;2022-10-16T13:46:17;19.90;99.20
49242;DHT22;35079;52.704;13.814;2022-10-16T13:48:44;19.90;99.60
49242;DHT22;35079;52.704;13.814;2022-10-16T13:51:17;19.80;99.50
49242;DHT22;35079;52.704;13.814;2022-10-16T13:53:44;19.90;98.70
49242;DHT22;35079;52.704;13.814;2022-10-16T13:56:14;19.80;99.40
49242;DHT22;35079;52.704;13.814;2022-10-16T13:58:41;19.80;99.60
49242;DHT22;35079;52.704;13.814;2022-10-16T14:01:25;19.70;99.60
49242;DHT22;35079;52.704;13.814;2022-10-16T14:03:52;19.60;99.30
49242;DHT22;35079;52.704;13.814;2022-10-16T14:06:20;19.80;99.80
49242;DHT22;35079;52.704;13.814;2022-10-16T14:12:00;19.70;99.40
49242;DHT22;35079;52.704;13.814;2022-10-16T14:14:34;19.70;99.70
49242;DHT22;35079;52.704;13.814;2022-10-16T14:17:00;19.70;99.90
49242;DHT22;35079;52.704;13.814;2022-10-16T14:19:29;19.60;99.80
49242;DHT22;35079;52.704;13.814;2022-10-16T14:21:56;19.60;99.90
49242;DHT22;35079;52.704;13.814;2022-10-16T14:24:33;19.60;99.70
49242;DHT22;35079;52.704;13.814;2022-10-16T14:27:00;19.60;99.20
49242;DHT22;35079;52.704;13.814;2022-10-16T14:29:28;19.40;99.50
49242;DHT22;35079;52.704;13.814;2022-10-16T14:32:05;19.40;99.40
49242;DHT22;35079;52.704;13.814;2022-10-16T14:34:33;19.30;99.90
49242;DHT22;35079;52.704;13.814;2022-10-16T14:37:01;19.20;99.80
49242;DHT22;35079;52.704;13.814;2022-10-16T14:39:33;19.30;98.90
49242;DHT22;35079;52.704;13.814;2022-10-16T14:41:59;19.10;99.20
49242;DHT22;35079;52.704;13.814;2022-10-16T14:44:32;19.00;99.50
49242;DHT22;35079;52.704;13.814;2022-10-16T14:47:07;18.90;99.90
49242;DHT22;35079;52.704;13.814;2022-10-16T14:49:33;18.90;99.90
49242;DHT22;35079;52.704;13.814;2022-10-16T14:51:59;18.70;99.90
49242;DHT22;35079;52.704;13.814;2022-10-16T14:54:25;18.70;99.90
49242;DHT22;35079;52.704;13.814;2022-10-16T14:56:54;18.70;99.90
49242;DHT22;35079;52.704;13.814;2022-10-16T14:59:35;18.70;99.90
49242;DHT22;35079;52.704;13.814;2022-10-16T15:04:46;18.30;99.90
49242;DHT22;35079;52.704;13.814;2022-10-16T15:07:12;18.20;99.90
49242;DHT22;35079;52.704;13.814;2022-10-16T15:09:38;18.00;99.90
49242;DHT22;35079;52.704;13.814;2022-10-16T15:12:04;17.90;99.90
49242;DHT22;35079;52.704;13.814;2022-10-16T15:14:29;17.70;99.90
49242;DHT22;35079;52.704;13.814;2022-10-16T15:16:55;17.70;99.90
49242;DHT22;35079;52.704;13.814;2022-10-16T15:19:20;17.50;99.90
49242;DHT22;35079;52.704;13.814;2022-10-16T15:21:47;17.40;99.90
49242;DHT22;35079;52.704;13.814;2022-10-16T15:24:13;17.40;99.90
49242;DHT22;35079;52.704;13.814;2022-10-16T15:26:39;17.40;99.90
49242;DHT22;35079;52.704;13.814;2022-10-16T15:29:05;17.20;99.90
49242;DHT22;35079;52.704;13.814;2022-10-16T15:31:31;17.20;99.90
49242;DHT22;35079;52.704;13.814;2022-10-16T15:33:57;17.10;99.90
49242;DHT22;35079;52.704;13.814;2022-10-16T15:36:41;17.00;99.90
49242;DHT22;35079;52.704;13.814;2022-10-16T15:39:18;16.90;99.90
49242;DHT22;35079;52.704;13.814;2022-10-16T15:41:45;16.80;99.90
49242;DHT22;35079;52.704;13.814;2022-10-16T15:44:19;16.80;99.90
49242;DHT22;35079;52.704;13.814;2022-10-16T15:46:46;16.60;99.90
49242;DHT22;35079;52.704;13.814;2022-10-16T15:49:12;16.60;99.90
49242;DHT22;35079;52.704;13.814;2022-10-16T15:51:39;16.50;99.90
49242;DHT22;35079;52.704;13.814;2022-10-16T15:54:05;16.40;99.90
49242;DHT22;35079;52.704;13.814;2022-10-16T15:56:31;16.30;99.90
49242;DHT22;35079;52.704;13.814;2022-10-16T15:58:59;16.30;99.90
49242;DHT22;35079;52.704;13.814;2022-10-16T16:01:25;16.10;99.90
49242;DHT22;35079;52.704;13.814;2022-10-16T16:03:55;16.10;99.90
49242;DHT22;35079;52.704;13.814;2022-10-16T16:06:21;16.10;99.90
49242;DHT22;35079;52.704;13.814;2022-10-16T16:08:49;16.00;99.90
49242;DHT22;35079;52.704;13.814;2022-10-16T16:11:17;15.90;99.90
49242;DHT22;35079;52.704;13.814;2022-10-16T16:13:43;15.70;99.90
49242;DHT22;35079;52.704;13.814;2022-10-16T16:16:12;15.60;99.90
49242;DHT22;35079;52.704;13.814;2022-10-16T16:18:39;15.60;99.90
49242;DHT22;35079;52.704;13.814;2022-10-16T16:21:06;15.60;99.90
49242;DHT22;35079;52.704;13.814;2022-10-16T16:23:32;15.50;99.90
49242;DHT22;35079;52.704;13.814;2022-10-16T16:26:24;15.60;99.90
49242;DHT22;35079;52.704;13.814;2022-10-16T16:28:56;15.40;99.90
49242;DHT22;35079;52.704;13.814;2022-10-16T16:31:27;15.40;99.90
49242;DHT22;35079;52.704;13.814;2022-10-16T16:33:54;15.40;99.90
49242;DHT22;35079;52.704;13.814;2022-10-16T16:36:20;15.30;99.90
49242;DHT22;35079;52.704;13.814;2022-10-16T16:38:46;15.20;99.90
49242;DHT22;35079;52.704;13.814;2022-10-16T16:41:17;15.10;99.90
49242;DHT22;35079;52.704;13.814;2022-10-16T16:43:43;15.20;99.90
49242;DHT22;35079;52.704;13.814;2022-10-16T16:46:09;15.10;99.90
49242;DHT22;35079;52.704;13.814;2022-10-16T16:48:35;15.00;99.90
49242;DHT22;35079;52.704;13.814;2022-10-16T16:51:05;14.90;99.90
49242;DHT22;35079;52.704;13.814;2022-10-16T16:53:34;14.80;99.90
49242;DHT22;35079;52.704;13.814;2022-10-16T16:56:06;14.80;99.90
49242;DHT22;35079;52.704;13.814;2022-10-16T16:58:32;14.80;99.90
49242;DHT22;35079;52.704;13.814;2022-10-16T17:00:59;14.80;99.90
49242;DHT22;35079;52.704;13.814;2022-10-16T17:03:28;14.80;99.90
49242;DHT22;35079;52.704;13.814;2022-10-16T17:06:01;14.80;99.90
49242;DHT22;35079;52.704;13.814;2022-10-16T17:08:28;14.60;99.90
49242;DHT22;35079;52.704;13.814;2022-10-16T17:10:54;14.50;99.90
49242;DHT22;35079;52.704;13.814;2022-10-16T17:13:23;14.50;99.90
49242;DHT22;35079;52.704;13.814;2022-10-16T17:15:50;14.40;99.90
49242;DHT22;35079;52.704;13.814;2022-10-16T17:18:17;14.30;99.90
49242;DHT22;35079;52.704;13.814;2022-10-16T17:20:44;14.40;99.90
49242;DHT22;35079;52.704;13.814;2022-10-16T17:23:10;14.20;99.90
49242;DHT22;35079;52.704;13.814;2022-10-16T17:25:40;14.10;99.90
49242;DHT22;35079;52.704;13.814;2022-10-16T17:28:08;14.10;99.90
49242;DHT22;35079;52.704;13.814;2022-10-16T17:30:34;14.10;99.90
49242;DHT22;35079;52.704;13.814;2022-10-16T17:33:00;14.00;99.90
49242;DHT22;35079;52.704;13.814;2022-10-16T17:35:26;14.10;99.90
49242;DHT22;35079;52.704;13.814;2022-10-16T17:37:52;14.00;99.90